Time;durP1;ratioP1;P1;durP2;ratioP2;P2;SDS_P1;SDS_P2;PMS_P1;PMS_P2;Temp;Humidity;BMP_temperature;BMP_pressure;BME280_temperature;BME280_humidity;BME280_pressure;Samples;Min_cycle;Max_cycle;Signal;HPM_P1;HPM_P2
2022/08/19 00:00:14;;;;;;;;;;;;;;;19.84;63.87;96470.75;30001;983;1881;-70
2022/08/19 00:00:45;;;;;;;;;;;;;;;19.81;63.93;96478.94;30001;983;1877;-75
2022/08/19 00:01:16;;;;;;;;;;;;;;;19.79;64.25;96473.00;30001;983;1881;-74
2022/08/19 00:01:47;;;;;;;;;;;;;;;19.79;63.99;96473.78;30001;982;1877;-72
2022/08/19 00:02:18;;;;;;;;;;;;;;;19.78;64.34;96474.94;30001;982;1859;-74
2022/08/19 00:02:50;;;;;;;;;;;;;;;19.75;64.25;96479.22;30001;982;1872;-73
2022/08/19 00:03:21;;;;;;;;;;;;;;;19.75;64.39;96478.44;30001;982;1881;-74
2022/08/19 00:03:51;;;;;;;;;;;;;;;19.73;64.29;96476.06;30001;982;1877;-74
2022/08/19 00:04:25;;;;;;;;;;;;;;;19.73;64.56;96476.06;30001;983;1880;-73
2022/08/19 00:04:56;;;;;;;;;;;;;;;19.74;64.17;96471.34;30001;983;1876;-75
2022/08/19 00:05:27;;;;;;;;;;;;;;;19.75;64.48;96483.94;30001;983;1746;-74
2022/08/19 00:05:59;;;;;;;;;;;;;;;19.78;64.15;96476.91;30001;983;1872;-75
2022/08/19 00:06:30;;;;;;;;;;;;;;;19.78;64.48;96471.37;30001;983;1880;-73
2022/08/19 00:07:00;;;;;;;;;;;;;;;19.76;64.23;96474.50;30001;983;1876;-74
2022/08/19 00:07:31;;;;;;;;;;;;;;;19.76;64.18;96469.00;30001;983;1881;-73
2022/08/19 00:08:03;;;;;;;;;;;;;;;19.77;64.26;96465.09;30001;983;1876;-75
2022/08/19 00:08:34;;;;;;;;;;;;;;;19.76;64.41;96471.75;30001;983;1881;-81
2022/08/19 00:09:06;;;;;;;;;;;;;;;19.74;64.44;96472.16;30001;983;1877;-73
2022/08/19 00:09:37;;;;;;;;;;;;;;;19.73;64.75;96464.25;30001;982;1881;-72
2022/08/19 00:10:12;;;;;;;;;;;;;;;19.73;64.27;96469.75;30001;982;1877;-72
2022/08/19 00:10:46;;;;;;;;;;;;;;;19.72;64.25;96474.47;30001;982;1859;-73
2022/08/19 00:11:17;;;;;;;;;;;;;;;19.72;64.32;96468.16;30001;982;1873;-80
2022/08/19 00:11:48;;;;;;;;;;;;;;;19.79;64.45;96473.00;30001;983;1880;-73
2022/08/19 00:12:19;;;;;;;;;;;;;;;19.78;64.14;96472.19;30001;983;1876;-74
2022/08/19 00:12:52;;;;;;;;;;;;;;;19.77;64.33;96470.59;30001;983;1880;-55
2022/08/19 00:13:23;;;;;;;;;;;;;;;19.75;64.25;96473.72;30001;983;1854;-74
2022/08/19 00:13:55;;;;;;;;;;;;;;;19.74;64.47;96472.16;30001;983;1876;-72
2022/08/19 00:14:26;;;;;;;;;;;;;;;19.75;64.72;96484.72;30001;983;1876;-72
2022/08/19 00:14:57;;;;;;;;;;;;;;;19.74;64.44;96474.91;30001;983;1881;-74
2022/08/19 00:15:28;;;;;;;;;;;;;;;19.73;64.42;96486.25;30001;983;1876;-75
2022/08/19 00:15:59;;;;;;;;;;;;;;;19.72;64.73;96474.47;30001;983;1881;-73
2022/08/19 00:16:30;;;;;;;;;;;;;;;19.72;64.65;96484.69;30001;983;1877;-75
2022/08/19 00:17:03;;;;;;;;;;;;;;;19.74;64.69;96476.84;30001;982;1881;-74
2022/08/19 00:17:34;;;;;;;;;;;;;;;19.73;64.43;96480.75;30001;982;1855;-74
2022/08/19 00:18:05;;;;;;;;;;;;;;;19.72;64.81;96484.69;30001;982;1877;-74
2022/08/19 00:18:36;;;;;;;;;;;;;;;19.71;64.48;96474.81;30001;982;1855;-73
2022/08/19 00:19:08;;;;;;;;;;;;;;;19.69;64.81;96474.38;30001;982;1877;-73
2022/08/19 00:19:40;;;;;;;;;;;;;;;19.72;64.45;96476.41;30001;983;1876;-70
2022/08/19 00:20:12;;;;;;;;;;;;;;;19.76;64.39;96480.00;30001;983;1881;-72
2022/08/19 00:20:43;;;;;;;;;;;;;;;19.79;64.46;96484.78;30001;983;1876;-73
2022/08/19 00:21:15;;;;;;;;;;;;;;;19.78;64.55;96472.19;30001;983;1881;-75
2022/08/19 00:21:46;;;;;;;;;;;;;;;19.79;64.50;96484.00;30001;983;1876;-72
2022/08/19 00:22:18;;;;;;;;;;;;;;;19.80;64.41;96480.88;30001;983;1881;-71
2022/08/19 00:22:49;;;;;;;;;;;;;;;19.79;64.04;96482.03;30001;983;1876;-73
2022/08/19 00:23:20;;;;;;;;;;;;;;;19.79;64.36;96484.78;30001;983;1881;-69
2022/08/19 00:23:51;;;;;;;;;;;;;;;19.78;64.34;96477.69;30001;983;1855;-73
2022/08/19 00:24:22;;;;;;;;;;;;;;;19.78;64.46;96477.69;30001;982;1877;-76
2022/08/19 00:24:53;;;;;;;;;;;;;;;19.80;64.44;96486.38;30001;982;1877;-73
2022/08/19 00:25:24;;;;;;;;;;;;;;;19.78;64.34;96488.72;30001;982;1859;-74
2022/08/19 00:25:55;;;;;;;;;;;;;;;19.75;64.45;96473.72;30001;982;1873;-74
2022/08/19 00:26:26;;;;;;;;;;;;;;;19.73;64.28;96478.00;30001;982;1881;-72
2022/08/19 00:26:57;;;;;;;;;;;;;;;19.72;64.39;96473.66;30001;983;1876;-74
2022/08/19 00:27:28;;;;;;;;;;;;;;;19.71;64.72;96480.31;30001;983;1880;-74
2022/08/19 00:27:59;;;;;;;;;;;;;;;19.69;64.45;96474.38;30001;983;1854;-74
2022/08/19 00:28:30;;;;;;;;;;;;;;;19.67;64.84;96477.50;30001;983;1876;-55
2022/08/19 00:29:01;;;;;;;;;;;;;;;19.69;64.66;96474.38;30001;983;1876;-74
2022/08/19 00:29:33;;;;;;;;;;;;;;;19.70;64.89;96476.78;30001;983;1881;-73
2022/08/19 00:30:04;;;;;;;;;;;;;;;19.68;64.54;96473.59;30001;983;1876;-73
2022/08/19 00:30:38;;;;;;;;;;;;;;;19.72;64.74;96473.66;30001;983;1881;-72
2022/08/19 00:31:10;;;;;;;;;;;;;;;19.71;64.82;96472.06;30001;982;1877;-74
2022/08/19 00:31:42;;;;;;;;;;;;;;;19.69;64.67;96474.38;30001;982;1881;-74
2022/08/19 00:32:13;;;;;;;;;;;;;;;19.67;64.63;96476.69;30001;982;1877;-70
2022/08/19 00:32:44;;;;;;;;;;;;;;;19.69;64.78;96474.38;30001;982;1881;-56
2022/08/19 00:33:16;;;;;;;;;;;;;;;19.75;64.57;96478.44;30001;982;1855;-73
2022/08/19 00:33:50;;;;;;;;;;;;;;;19.73;64.47;96470.53;30001;982;1877;-75
2022/08/19 00:34:21;;;;;;;;;;;;;;;19.72;64.62;96468.16;30001;983;1876;-73
2022/08/19 00:34:52;;;;;;;;;;;;;;;19.72;64.62;96471.72;30001;983;1880;-74
2022/08/19 00:35:24;;;;;;;;;;;;;;;19.73;64.40;96465.03;30001;983;1876;-72
2022/08/19 00:35:55;;;;;;;;;;;;;;;19.76;64.70;96466.25;30001;983;1880;-73
2022/08/19 00:36:26;;;;;;;;;;;;;;;19.78;64.30;96455.66;30001;983;1876;-72
2022/08/19 00:36:57;;;;;;;;;;;;;;;19.80;64.14;96460.81;30001;983;1881;-76
2022/08/19 00:37:28;;;;;;;;;;;;;;;19.79;64.41;96456.47;30001;983;1876;-75
2022/08/19 00:37:59;;;;;;;;;;;;;;;19.75;64.54;96448.94;30001;983;1859;-55
2022/08/19 00:38:30;;;;;;;;;;;;;;;19.74;64.29;96455.63;30001;982;1872;-74
2022/08/19 00:39:01;;;;;;;;;;;;;;;19.73;64.67;96456.00;30001;982;1881;-69
2022/08/19 00:39:33;;;;;;;;;;;;;;;19.72;64.65;96457.16;30001;982;1877;-77
2022/08/19 00:40:05;;;;;;;;;;;;;;;19.72;64.49;96446.94;30001;982;1881;-73
2022/08/19 00:40:36;;;;;;;;;;;;;;;19.75;64.33;96456.44;30001;982;1855;-70
2022/08/19 00:41:07;;;;;;;;;;;;;;;19.74;64.67;96446.56;30001;982;1877;-74
2022/08/19 00:41:38;;;;;;;;;;;;;;;19.70;64.60;96453.97;30001;982;1877;-71
2022/08/19 00:42:10;;;;;;;;;;;;;;;19.68;64.85;96450.78;30001;983;1880;-79
2022/08/19 00:42:44;;;;;;;;;;;;;;;19.66;64.60;96447.59;30001;983;1876;-73
2022/08/19 00:43:18;;;;;;;;;;;;;;;19.67;65.00;96443.66;30001;983;1859;-69
2022/08/19 00:44:06;;;;;;;;;;;;;;;19.65;64.89;96448.75;30001;983;1850;-74
2022/08/19 00:44:37;;;;;;;;;;;;;;;19.64;65.01;96447.94;30001;983;1792;-72
2022/08/19 00:45:11;;;;;;;;;;;;;;;19.63;64.82;96442.78;30001;983;1876;-75
2022/08/19 00:45:43;;;;;;;;;;;;;;;19.64;65.08;96455.41;30001;983;1881;-71
2022/08/19 00:46:14;;;;;;;;;;;;;;;19.64;65.05;96449.91;30001;982;1877;-74
2022/08/19 00:46:46;;;;;;;;;;;;;;;19.63;64.91;96453.81;30001;982;1881;-72
2022/08/19 00:47:17;;;;;;;;;;;;;;;19.60;65.22;96449.03;30001;982;1877;-73
2022/08/19 00:47:48;;;;;;;;;;;;;;;19.60;65.14;96451.78;30001;982;1882;-68
2022/08/19 00:48:20;;;;;;;;;;;;;;;19.60;65.16;96443.53;30001;982;1855;-55
2022/08/19 00:48:51;;;;;;;;;;;;;;;19.58;65.24;96449.37;30001;982;1877;-71
2022/08/19 00:49:34;;;;;;;;;;;;;;;19.59;65.13;96441.94;30001;982;1855;-75
2022/08/19 00:50:08;;;;;;;;;;;;;;;19.58;65.41;96451.34;30001;983;1876;-69
2022/08/19 00:50:42;;;;;;;;;;;;;;;19.58;65.42;96452.13;30001;983;1876;-74
2022/08/19 00:51:13;;;;;;;;;;;;;;;19.58;65.31;96451.34;30001;983;1881;-71
2022/08/19 00:51:45;;;;;;;;;;;;;;;19.58;65.39;96456.84;30001;976;1891;-74
2022/08/19 00:52:36;;;;;;;;;;;;;;;19.56;65.18;96457.19;30001;983;1881;-74
2022/08/19 00:53:07;;;;;;;;;;;;;;;19.53;66.01;96454.38;30001;983;1877;-74
2022/08/19 00:53:39;;;;;;;;;;;;;;;19.53;65.53;96457.91;30001;982;1881;-75
2022/08/19 00:54:11;;;;;;;;;;;;;;;19.52;65.51;96461.03;30001;982;1855;-75
2022/08/19 00:54:42;;;;;;;;;;;;;;;19.53;65.76;96454.38;30001;982;1877;-73
2022/08/19 00:55:18;;;;;;;;;;;;;;;19.53;65.43;96465.37;30001;982;1877;-74
2022/08/19 00:55:51;;;;;;;;;;;;;;;19.53;65.47;96465.37;30001;982;1881;-55
2022/08/19 00:56:22;;;;;;;;;;;;;;;19.53;65.52;96468.12;30001;982;1877;-74
2022/08/19 00:56:53;;;;;;;;;;;;;;;19.51;65.61;96462.19;30001;972;1901;-73
2022/08/19 00:57:30;;;;;;;;;;;;;;;19.50;65.96;96469.63;30001;983;1876;-73
2022/08/19 00:58:07;;;;;;;;;;;;;;;19.49;65.76;96470.78;30001;983;1859;-73
2022/08/19 00:58:39;;;;;;;;;;;;;;;19.47;65.71;96470.34;30001;983;1872;-73
2022/08/19 00:59:10;;;;;;;;;;;;;;;19.51;65.67;96464.94;30001;983;1881;-77
2022/08/19 00:59:42;;;;;;;;;;;;;;;19.52;65.53;96458.28;30001;985;1855;-72
2022/08/19 01:00:17;;;;;;;;;;;;;;;19.52;65.95;96464.59;30001;983;1876;-74
2022/08/19 01:00:48;;;;;;;;;;;;;;;19.52;66.39;96469.28;30001;983;1877;-75
2022/08/19 01:01:19;;;;;;;;;;;;;;;19.52;66.03;96469.28;30001;982;1881;-74
2022/08/19 01:01:50;;;;;;;;;;;;;;;19.49;66.63;96464.47;30001;982;1877;-74
2022/08/19 01:02:21;;;;;;;;;;;;;;;19.48;66.70;96473.88;30001;982;1881;-70
2022/08/19 01:02:52;;;;;;;;;;;;;;;19.47;66.04;96472.28;30001;982;1877;-78
2022/08/19 01:03:23;;;;;;;;;;;;;;;19.51;66.07;96471.25;30001;966;1897;-71
2022/08/19 01:03:54;;;;;;;;;;;;;;;19.57;65.45;96466.25;30001;983;1876;-73
2022/08/19 01:04:25;;;;;;;;;;;;;;;19.57;65.68;96467.06;30001;983;1880;-72
2022/08/19 01:04:56;;;;;;;;;;;;;;;19.56;65.53;96470.97;30001;983;1854;-75
2022/08/19 01:05:29;;;;;;;;;;;;;;;19.56;65.51;96470.16;30001;983;1854;-73
2022/08/19 01:06:00;;;;;;;;;;;;;;;19.54;65.58;96469.72;30001;983;1876;-73
2022/08/19 01:06:32;;;;;;;;;;;;;;;19.52;65.83;96464.59;30001;983;1881;-73
2022/08/19 01:07:03;;;;;;;;;;;;;;;19.52;65.63;96469.28;30001;983;1782;-69
2022/08/19 01:07:38;;;;;;;;;;;;;;;19.51;66.08;96462.19;30001;983;1881;-70
2022/08/19 01:08:09;;;;;;;;;;;;;;;19.49;66.09;96470.78;30001;983;1877;-74
2022/08/19 01:08:40;;;;;;;;;;;;;;;19.49;66.06;96467.22;30001;982;1881;-70
2022/08/19 01:09:11;;;;;;;;;;;;;;;19.48;66.08;96469.19;30001;982;1855;-73
2022/08/19 01:09:42;;;;;;;;;;;;;;;19.47;65.96;96467.59;30001;982;1876;-72
2022/08/19 01:10:15;;;;;;;;;;;;;;;19.46;66.20;96465.19;30001;982;1877;-73
2022/08/19 01:10:51;;;;;;;;;;;;;;;19.46;66.17;96470.69;30001;958;1905;-74
2022/08/19 01:11:22;;;;;;;;;;;;;;;19.46;66.02;96470.69;30001;983;1876;-73
2022/08/19 01:11:53;;;;;;;;;;;;;;;19.47;66.21;96472.28;30001;983;1847;-73
2022/08/19 01:12:24;;;;;;;;;;;;;;;19.46;65.90;96465.19;30001;962;1875;-73
2022/08/19 01:12:55;;;;;;;;;;;;;;;19.45;65.99;96469.09;30001;983;1876;-74
2022/08/19 01:13:28;;;;;;;;;;;;;;;19.43;66.04;96470.25;30001;983;1877;-75
2022/08/19 01:13:59;;;;;;;;;;;;;;;19.43;66.19;96462.00;30001;983;1881;-73
2022/08/19 01:14:30;;;;;;;;;;;;;;;19.45;65.95;96463.59;30001;983;1778;-74
2022/08/19 01:15:02;;;;;;;;;;;;;;;19.46;66.49;96466.00;30001;983;1881;-73
2022/08/19 01:15:35;;;;;;;;;;;;;;;19.45;66.37;96466.34;30001;983;1877;-74
2022/08/19 01:16:07;;;;;;;;;;;;;;;19.44;66.37;96460.03;30001;983;1859;-70
2022/08/19 01:16:39;;;;;;;;;;;;;;;19.45;66.16;96458.88;30001;982;1872;-73
2022/08/19 01:17:11;;;;;;;;;;;;;;;19.43;66.12;96456.50;30001;982;1881;-73
2022/08/19 01:17:42;;;;;;;;;;;;;;;19.42;66.07;96457.66;30001;982;1877;-73
2022/08/19 01:18:15;;;;;;;;;;;;;;;19.41;66.16;96453.31;30001;982;1859;-70
2022/08/19 01:18:46;;;;;;;;;;;;;;;19.46;66.15;96459.69;30001;983;1872;-72
2022/08/19 01:19:26;;;;;;;;;;;;;;;19.45;66.35;96463.59;30001;983;1880;-70
2022/08/19 01:19:57;;;;;;;;;;;;;;;19.53;65.65;96459.88;30001;983;1854;-70
2022/08/19 01:20:28;;;;;;;;;;;;;;;19.54;65.85;96454.00;30001;983;1876;-73
2022/08/19 01:21:02;;;;;;;;;;;;;;;19.52;65.73;96453.56;30001;983;1876;-74
2022/08/19 01:21:42;;;;;;;;;;;;;;;19.51;65.92;96453.94;30001;983;1881;-74
2022/08/19 01:22:19;;;;;;;;;;;;;;;19.50;65.77;96460.56;30001;983;1876;-74
2022/08/19 01:22:52;;;;;;;;;;;;;;;19.47;66.33;96455.78;30001;983;1859;-74
2022/08/19 01:23:42;;;;;;;;;;;;;;;19.45;66.44;96458.09;30001;983;1850;-54
2022/08/19 01:24:13;;;;;;;;;;;;;;;19.45;66.41;96460.84;30001;982;1881;-74
2022/08/19 01:24:44;;;;;;;;;;;;;;;19.46;66.34;96454.19;30001;982;1877;-73
2022/08/19 01:25:16;;;;;;;;;;;;;;;19.45;66.06;96463.59;30001;982;1859;-73
2022/08/19 01:25:49;;;;;;;;;;;;;;;19.43;66.04;96462.00;30001;982;1873;-73
2022/08/19 01:26:22;;;;;;;;;;;;;;;19.41;66.38;96453.31;30001;983;1880;-71
2022/08/19 01:26:53;;;;;;;;;;;;;;;19.40;66.59;96457.22;30001;984;1876;-55
2022/08/19 01:27:24;;;;;;;;;;;;;;;19.38;66.57;96459.56;30001;983;1881;-74
2022/08/19 01:27:55;;;;;;;;;;;;;;;19.38;66.82;96458.75;30001;983;1876;-74
2022/08/19 01:28:27;;;;;;;;;;;;;;;19.36;66.37;96461.88;30001;983;1859;-74
2022/08/19 01:28:59;;;;;;;;;;;;;;;19.36;66.51;96461.88;30001;983;1872;-72
2022/08/19 01:29:30;;;;;;;;;;;;;;;19.36;66.74;96458.31;30001;983;1881;-73
2022/08/19 01:30:00;;;;;;;;;;;;;;;19.35;66.59;96454.78;30001;983;1877;-55
2022/08/19 01:30:33;;;;;;;;;;;;;;;19.36;66.57;96452.81;30001;983;1881;-73
2022/08/19 01:31:04;;;;;;;;;;;;;;;19.35;66.64;96456.72;30001;983;1876;-73
2022/08/19 01:31:36;;;;;;;;;;;;;;;19.34;66.89;96447.69;30001;982;1881;-73
2022/08/19 01:32:08;;;;;;;;;;;;;;;19.33;66.90;96457.09;30001;965;1821;-73
2022/08/19 01:32:41;;;;;;;;;;;;;;;19.34;66.92;96453.19;30001;982;1881;-55
2022/08/19 01:33:12;;;;;;;;;;;;;;;19.35;66.57;96449.28;30001;982;1855;-74
2022/08/19 01:33:44;;;;;;;;;;;;;;;19.38;66.30;96456.00;30001;982;1877;-73
2022/08/19 01:34:15;;;;;;;;;;;;;;;19.39;66.61;96449.34;30001;983;1876;-74
2022/08/19 01:34:47;;;;;;;;;;;;;;;19.40;66.25;96451.72;30001;983;1859;-69
2022/08/19 01:35:18;;;;;;;;;;;;;;;19.42;66.55;96449.41;30001;983;1850;-73
2022/08/19 01:35:51;;;;;;;;;;;;;;;19.41;66.49;96453.31;30001;983;1881;-73
2022/08/19 01:36:36;;;;;;;;;;;;;;;19.42;66.42;96448.59;30001;983;1876;-69
2022/08/19 01:37:10;;;;;;;;;;;;;;;19.43;66.38;96447.44;30001;983;1881;-75
2022/08/19 01:37:49;;;;;;;;;;;;;;;19.41;66.26;96442.31;30001;983;1877;-74
2022/08/19 01:38:22;;;;;;;;;;;;;;;19.38;66.68;96454.06;30001;982;1859;-75
2022/08/19 01:38:53;;;;;;;;;;;;;;;19.36;66.65;96448.13;30001;982;1868;-73
2022/08/19 01:39:25;;;;;;;;;;;;;;;19.36;66.79;96450.06;30001;982;1881;-73
2022/08/19 01:39:56;;;;;;;;;;;;;;;19.35;66.71;96449.28;30001;982;1877;-74
2022/08/19 01:40:30;;;;;;;;;;;;;;;19.35;66.67;96443.78;30001;982;1881;-70
2022/08/19 01:41:01;;;;;;;;;;;;;;;19.36;66.79;96450.06;30001;982;1877;-73
2022/08/19 01:41:32;;;;;;;;;;;;;;;19.36;67.07;96445.38;30001;983;1880;-75
2022/08/19 01:42:04;;;;;;;;;;;;;;;19.39;66.74;96443.84;30001;983;1876;-71
2022/08/19 01:42:35;;;;;;;;;;;;;;;19.43;66.25;96451.00;30001;983;1881;-73
2022/08/19 01:43:06;;;;;;;;;;;;;;;19.45;66.17;96447.09;30001;983;1876;-75
2022/08/19 01:43:37;;;;;;;;;;;;;;;19.45;66.53;96455.34;30001;983;1859;-72
2022/08/19 01:44:09;;;;;;;;;;;;;;;19.46;66.19;96451.44;30001;983;1850;-74
2022/08/19 01:44:43;;;;;;;;;;;;;;;19.45;66.04;96447.88;30001;960;1904;-73
2022/08/19 01:45:14;;;;;;;;;;;;;;;19.43;66.45;96444.69;30001;983;1877;-73
2022/08/19 01:45:45;;;;;;;;;;;;;;;19.45;66.44;96441.59;30001;982;1881;-73
2022/08/19 01:46:17;;;;;;;;;;;;;;;19.42;66.28;96446.66;30001;982;1877;-74
2022/08/19 01:46:48;;;;;;;;;;;;;;;19.42;66.45;96441.16;30001;982;1881;-74
2022/08/19 01:47:19;;;;;;;;;;;;;;;19.39;66.61;96450.16;30001;982;1877;-73
2022/08/19 01:47:50;;;;;;;;;;;;;;;19.37;66.32;96451.66;30001;982;1881;-72
2022/08/19 01:48:23;;;;;;;;;;;;;;;19.35;66.54;96449.28;30001;982;1877;-73
2022/08/19 01:48:54;;;;;;;;;;;;;;;19.35;66.71;96448.47;30001;986;1881;-73
2022/08/19 01:49:26;;;;;;;;;;;;;;;19.34;66.72;96446.88;30001;983;1854;-71
2022/08/19 01:49:58;;;;;;;;;;;;;;;19.33;66.74;96446.09;30001;983;1876;-74
2022/08/19 01:50:32;;;;;;;;;;;;;;;19.33;66.81;96440.56;30001;983;1876;-69
2022/08/19 01:51:03;;;;;;;;;;;;;;;19.36;66.43;96445.38;30001;983;1881;-73
2022/08/19 01:51:34;;;;;;;;;;;;;;;19.37;66.71;96444.22;30001;983;1876;-71
2022/08/19 01:52:05;;;;;;;;;;;;;;;19.39;66.31;96452.09;30001;983;1881;-73
2022/08/19 01:52:37;;;;;;;;;;;;;;;19.38;66.54;96448.56;30001;983;1876;-74
2022/08/19 01:53:10;;;;;;;;;;;;;;;19.38;66.82;96442.25;30001;982;1881;-74
2022/08/19 01:53:41;;;;;;;;;;;;;;;19.35;66.86;96443.78;30001;982;1877;-72
2022/08/19 01:54:12;;;;;;;;;;;;;;;19.35;66.85;96448.47;30001;982;1859;-74
2022/08/19 01:54:43;;;;;;;;;;;;;;;19.36;66.83;96445.38;30001;982;1872;-70
2022/08/19 01:55:16;;;;;;;;;;;;;;;19.40;66.48;96439.94;30001;982;1881;-68
2022/08/19 01:55:48;;;;;;;;;;;;;;;19.40;66.69;96446.22;30001;982;1877;-74
2022/08/19 01:56:19;;;;;;;;;;;;;;;19.39;67.02;96447.41;30001;982;1881;-74
2022/08/19 01:56:52;;;;;;;;;;;;;;;19.36;67.11;96450.06;30001;983;1876;-73
2022/08/19 01:57:23;;;;;;;;;;;;;;;19.33;66.83;96446.09;30001;983;1881;-74
2022/08/19 01:57:55;;;;;;;;;;;;;;;19.33;66.75;96446.09;30001;964;1895;-71
2022/08/19 01:58:30;;;;;;;;;;;;;;;19.34;67.08;96446.88;30001;983;1881;-76
2022/08/19 01:59:03;;;;;;;;;;;;;;;19.33;66.83;96451.59;30001;983;1876;-73
2022/08/19 01:59:36;;;;;;;;;;;;;;;19.34;67.08;96452.38;30001;983;1859;-70
2022/08/19 02:00:09;;;;;;;;;;;;;;;19.32;66.69;96455.50;30001;983;1850;-73
2022/08/19 02:00:40;;;;;;;;;;;;;;;19.32;67.07;96446.44;30001;983;1881;-56
2022/08/19 02:01:12;;;;;;;;;;;;;;;19.32;66.82;96454.69;30001;982;1877;-73
2022/08/19 02:01:43;;;;;;;;;;;;;;;19.31;66.81;96456.66;30001;964;1899;-73
2022/08/19 02:02:14;;;;;;;;;;;;;;;19.31;67.14;96448.41;30001;982;1877;-74
2022/08/19 02:02:45;;;;;;;;;;;;;;;19.30;67.24;96452.31;30001;982;1881;-72
2022/08/19 02:03:16;;;;;;;;;;;;;;;19.28;67.11;96453.81;30001;982;1877;-74
2022/08/19 02:03:47;;;;;;;;;;;;;;;19.28;67.09;96453.81;30001;982;1752;-74
2022/08/19 02:04:17;;;;;;;;;;;;;;;19.27;67.48;96464.03;30001;983;1872;-73
2022/08/19 02:04:48;;;;;;;;;;;;;;;19.26;67.21;96459.69;30001;983;1880;-73
2022/08/19 02:05:21;;;;;;;;;;;;;;;19.25;67.25;96455.31;30001;983;1876;-74
2022/08/19 02:05:56;;;;;;;;;;;;;;;19.25;67.50;96455.31;30001;983;1859;-73
2022/08/19 02:06:28;;;;;;;;;;;;;;;19.29;67.13;96456.22;30001;983;1872;-72
2022/08/19 02:06:59;;;;;;;;;;;;;;;19.32;66.84;96455.50;30001;983;1859;-70
2022/08/19 02:07:33;;;;;;;;;;;;;;;19.33;66.76;96457.09;30001;983;1850;-73
2022/08/19 02:08:04;;;;;;;;;;;;;;;19.34;67.08;96457.87;30001;983;1881;-74
2022/08/19 02:08:37;;;;;;;;;;;;;;;19.33;67.04;96456.28;30001;982;1877;-73
2022/08/19 02:09:09;;;;;;;;;;;;;;;19.32;67.06;96457.44;30001;982;1881;-74
2022/08/19 02:09:39;;;;;;;;;;;;;;;19.31;66.78;96458.59;30001;984;1855;-73
2022/08/19 02:10:14;;;;;;;;;;;;;;;19.29;67.23;96458.97;30001;982;1877;-74
2022/08/19 02:10:44;;;;;;;;;;;;;;;19.28;67.24;96460.12;30001;982;1877;-73
2022/08/19 02:11:20;;;;;;;;;;;;;;;19.29;67.26;96458.97;30001;983;1858;-73
2022/08/19 02:11:51;;;;;;;;;;;;;;;19.27;67.70;96455.75;30001;983;1872;-73
2022/08/19 02:12:22;;;;;;;;;;;;;;;19.24;67.57;96450.97;30001;983;1859;-73
2022/08/19 02:12:52;;;;;;;;;;;;;;;19.24;67.79;96453.72;30001;983;1872;-73
2022/08/19 02:13:24;;;;;;;;;;;;;;;19.23;67.91;96449.37;30001;983;1881;-72
2022/08/19 02:13:55;;;;;;;;;;;;;;;19.22;67.79;96449.75;30001;986;1876;-73
2022/08/19 02:14:26;;;;;;;;;;;;;;;19.22;68.02;96450.53;30001;983;1881;-75
2022/08/19 02:14:58;;;;;;;;;;;;;;;19.22;67.61;96450.53;30001;983;1877;-73
2022/08/19 02:15:29;;;;;;;;;;;;;;;19.23;67.66;96445.84;30001;964;1809;-74
2022/08/19 02:16:00;;;;;;;;;;;;;;;19.22;67.73;96453.28;30001;982;1855;-73
2022/08/19 02:16:32;;;;;;;;;;;;;;;19.22;67.82;96445.03;30001;976;1883;-73
2022/08/19 02:17:03;;;;;;;;;;;;;;;19.22;67.60;96444.25;30001;982;1855;-70
2022/08/19 02:17:34;;;;;;;;;;;;;;;19.25;67.73;96449.81;30001;982;1877;-69
2022/08/19 02:18:05;;;;;;;;;;;;;;;19.25;67.60;96449.81;30001;982;1877;-73
2022/08/19 02:18:36;;;;;;;;;;;;;;;19.25;67.73;96443.53;30001;983;1880;-74
2022/08/19 02:19:07;;;;;;;;;;;;;;;19.24;67.50;96439.19;30001;983;1876;-74
2022/08/19 02:19:37;;;;;;;;;;;;;;;19.23;67.62;96452.13;30001;983;1880;-70
2022/08/19 02:20:10;;;;;;;;;;;;;;;19.24;67.67;96445.47;30001;983;1876;-74
2022/08/19 02:20:42;;;;;;;;;;;;;;;19.24;67.85;96447.44;30001;983;1859;-73
2022/08/19 02:21:14;;;;;;;;;;;;;;;19.25;67.47;96443.53;30001;983;1872;-74
2022/08/19 02:21:46;;;;;;;;;;;;;;;19.30;67.39;96446.81;30001;983;1881;-72
2022/08/19 02:22:17;;;;;;;;;;;;;;;19.29;67.44;96445.19;30001;983;1876;-70
2022/08/19 02:22:52;;;;;;;;;;;;;;;19.30;67.25;96451.50;30001;983;1881;-73
2022/08/19 02:23:23;;;;;;;;;;;;;;;19.29;67.24;96445.19;30001;982;1877;-69
2022/08/19 02:23:55;;;;;;;;;;;;;;;19.31;67.39;96448.41;30001;982;1881;-73
2022/08/19 02:24:26;;;;;;;;;;;;;;;19.28;67.40;96440.84;30001;982;1877;-78
2022/08/19 02:24:57;;;;;;;;;;;;;;;19.30;67.58;96441.28;30001;982;1881;-72
2022/08/19 02:25:29;;;;;;;;;;;;;;;19.28;67.36;96449.09;30001;982;1877;-71
2022/08/19 02:26:00;;;;;;;;;;;;;;;19.28;67.56;96449.09;30001;983;1858;-71
2022/08/19 02:26:32;;;;;;;;;;;;;;;19.26;67.50;96445.91;30001;983;1872;-72
2022/08/19 02:27:03;;;;;;;;;;;;;;;19.24;67.70;96450.97;30001;983;1880;-72
2022/08/19 02:27:33;;;;;;;;;;;;;;;19.24;67.59;96452.94;30001;983;1854;-72
2022/08/19 02:28:05;;;;;;;;;;;;;;;19.22;67.89;96453.28;30001;983;1877;-70
2022/08/19 02:28:36;;;;;;;;;;;;;;;19.24;67.72;96459.22;30001;983;1814;-81
2022/08/19 02:29:07;;;;;;;;;;;;;;;19.30;67.40;96457.00;30001;983;1859;-73
2022/08/19 02:29:38;;;;;;;;;;;;;;;19.28;67.66;96460.12;30001;983;1872;-71
2022/08/19 02:30:15;;;;;;;;;;;;;;;19.26;67.48;96456.13;30001;983;1881;-73
2022/08/19 02:30:47;;;;;;;;;;;;;;;19.24;67.44;96461.19;30001;983;1877;-73
2022/08/19 02:31:21;;;;;;;;;;;;;;;19.21;67.85;96464.66;30001;982;1881;-73
2022/08/19 02:31:52;;;;;;;;;;;;;;;19.19;68.04;96462.25;30001;982;1877;-73
2022/08/19 02:32:27;;;;;;;;;;;;;;;19.18;68.18;96460.66;30001;982;1859;-72
2022/08/19 02:32:57;;;;;;;;;;;;;;;19.15;68.24;96458.63;30001;982;1851;-73
2022/08/19 02:33:28;;;;;;;;;;;;;;;19.15;68.26;96458.63;30001;983;1880;-73
2022/08/19 02:33:59;;;;;;;;;;;;;;;19.16;68.20;96462.19;30001;983;1876;-72
2022/08/19 02:34:30;;;;;;;;;;;;;;;19.17;68.32;96459.06;30001;983;1881;-73
2022/08/19 02:35:01;;;;;;;;;;;;;;;19.18;68.28;96460.66;30001;983;1876;-71
2022/08/19 02:35:32;;;;;;;;;;;;;;;19.17;68.16;96464.56;30001;983;1881;-70
2022/08/19 02:36:04;;;;;;;;;;;;;;;19.18;68.15;96459.88;30001;983;1876;-76
2022/08/19 02:36:35;;;;;;;;;;;;;;;19.17;68.08;96467.31;30001;983;1881;-72
2022/08/19 02:38:24;;;;;;;;;;;;;;;19.17;68.12;96453.56;30001;983;1876;-74
2022/08/19 02:38:46;;;;;;;;;;;;;;;19.17;67.94;96450.81;30001;982;1872;-73
2022/08/19 02:39:17;;;;;;;;;;;;;;;19.17;67.93;96461.03;30001;982;1881;-70
2022/08/19 02:39:50;;;;;;;;;;;;;;;19.17;68.21;96453.56;30001;982;1877;-69
2022/08/19 02:40:21;;;;;;;;;;;;;;;19.17;68.47;96459.06;30001;982;1881;-73
2022/08/19 02:40:53;;;;;;;;;;;;;;;19.18;68.07;96459.88;30001;982;1851;-72
2022/08/19 02:41:26;;;;;;;;;;;;;;;19.17;68.27;96453.56;30001;983;1880;-74
2022/08/19 02:41:59;;;;;;;;;;;;;;;19.17;68.25;96458.28;30001;983;1876;-73
2022/08/19 02:42:32;;;;;;;;;;;;;;;19.16;68.11;96462.19;30001;983;1859;-73
2022/08/19 02:43:05;;;;;;;;;;;;;;;19.13;67.94;96452.69;30001;983;1850;-73
2022/08/19 02:43:38;;;;;;;;;;;;;;;19.14;68.41;96464.50;30001;983;1859;-73
2022/08/19 02:44:09;;;;;;;;;;;;;;;19.14;68.25;96459.78;30001;983;1872;-71
2022/08/19 02:44:40;;;;;;;;;;;;;;;19.16;68.37;96451.97;30001;983;1881;-67
2022/08/19 02:45:12;;;;;;;;;;;;;;;19.21;68.02;96459.16;30001;982;1877;-73
2022/08/19 02:45:43;;;;;;;;;;;;;;;19.21;67.92;96451.69;30001;982;1881;-71
2022/08/19 02:46:14;;;;;;;;;;;;;;;19.23;68.10;96452.13;30001;982;1877;-74
2022/08/19 02:46:47;;;;;;;;;;;;;;;19.22;67.89;96458.00;30001;982;1881;-72
2022/08/19 02:47:19;;;;;;;;;;;;;;;19.21;68.04;96453.66;30001;982;1877;-75
2022/08/19 02:47:49;;;;;;;;;;;;;;;19.22;68.38;96447.78;30001;982;1881;-73
2022/08/19 02:48:21;;;;;;;;;;;;;;;19.19;68.23;96451.25;30001;982;1855;-73
2022/08/19 02:48:53;;;;;;;;;;;;;;;19.17;68.47;96452.78;30001;983;1876;-72
2022/08/19 02:49:24;;;;;;;;;;;;;;;19.13;68.34;96452.69;30001;983;1876;-73
2022/08/19 02:49:55;;;;;;;;;;;;;;;19.14;68.45;96446.03;30001;983;1881;-73
2022/08/19 02:50:26;;;;;;;;;;;;;;;19.14;68.21;96447.97;30001;983;1876;-73
2022/08/19 02:50:57;;;;;;;;;;;;;;;19.12;68.45;96437.34;30001;983;1880;-73
2022/08/19 02:51:30;;;;;;;;;;;;;;;19.14;68.56;96443.28;30001;983;1876;-71
2022/08/19 02:52:01;;;;;;;;;;;;;;;19.20;68.42;96443.81;30001;983;1859;-74
2022/08/19 02:52:33;;;;;;;;;;;;;;;19.20;68.20;96441.84;30001;983;1872;-74